sensor_id;sensor_type;location;lat;lon;timestamp;pressure;altitude;pressure_sealevel;temperature;humidity
76834;BME280;65793;42.678;23.332;2023-02-02T21:56:25;94969.69;;;1.58;100.00
76834;BME280;65793;42.678;23.332;2023-02-02T21:59:28;94972.59;;;1.55;100.00
76834;BME280;65793;42.678;23.332;2023-02-02T22:02:37;94967.09;;;1.58;100.00
76834;BME280;65793;42.678;23.332;2023-02-02T22:05:39;94974.56;;;1.61;100.00
76834;BME280;65793;42.678;23.332;2023-02-02T22:08:40;94982.03;;;1.64;100.00
76834;BME280;65793;42.678;23.332;2023-02-02T22:11:46;94986.41;;;1.64;100.00
76834;BME280;65793;42.678;23.332;2023-02-02T22:14:48;94975.38;;;1.70;100.00
76834;BME280;65793;42.678;23.332;2023-02-02T22:17:50;94976.03;;;1.64;100.00
76834;BME280;65793;42.678;23.332;2023-02-02T22:20:53;94974.25;;;1.64;100.00
76834;BME280;65793;42.678;23.332;2023-02-02T22:23:53;94980.72;;;1.60;100.00
76834;BME280;65793;42.678;23.332;2023-02-02T22:26:57;94999.38;;;1.64;100.00
76834;BME280;65793;42.678;23.332;2023-02-02T22:30:05;94999.06;;;1.67;100.00
76834;BME280;65793;42.678;23.332;2023-02-02T22:33:11;95000.50;;;1.69;100.00
76834;BME280;65793;42.678;23.332;2023-02-02T22:36:12;94986.88;;;1.67;100.00
76834;BME280;65793;42.678;23.332;2023-02-02T22:39:12;94983.97;;;1.70;100.00
76834;BME280;65793;42.678;23.332;2023-02-02T22:42:14;94985.59;;;1.71;100.00
76834;BME280;65793;42.678;23.332;2023-02-02T22:45:15;94983.81;;;1.72;100.00
76834;BME280;65793;42.678;23.332;2023-02-02T22:48:16;94987.88;;;1.74;100.00
76834;BME280;65793;42.678;23.332;2023-02-02T22:51:16;94982.69;;;1.74;100.00
76834;BME280;65793;42.678;23.332;2023-02-02T22:54:17;94965.63;;;1.72;100.00
76834;BME280;65793;42.678;23.332;2023-02-02T22:57:19;94973.91;;;1.67;100.00
76834;BME280;65793;42.678;23.332;2023-02-02T23:00:21;94963.50;;;1.67;100.00
76834;BME280;65793;42.678;23.332;2023-02-02T23:03:22;94970.50;;;1.67;100.00
76834;BME280;65793;42.678;23.332;2023-02-02T23:06:23;94963.69;;;1.74;100.00
76834;BME280;65793;42.678;23.332;2023-02-02T23:09:23;94969.69;;;1.74;100.00
76834;BME280;65793;42.678;23.332;2023-02-02T23:12:25;94962.72;;;1.75;100.00
76834;BME280;65793;42.678;23.332;2023-02-02T23:15:26;94970.66;;;1.73;100.00
76834;BME280;65793;42.678;23.332;2023-02-02T23:18:27;94964.50;;;1.74;100.00
76834;BME280;65793;42.678;23.332;2023-02-02T23:21:28;94958.16;;;1.77;100.00
76834;BME280;65793;42.678;23.332;2023-02-02T23:24:28;94953.31;;;1.74;100.00
76834;BME280;65793;42.678;23.332;2023-02-02T23:27:30;94951.19;;;1.77;100.00
76834;BME280;65793;42.678;23.332;2023-02-02T23:30:31;94950.06;;;1.80;100.00
76834;BME280;65793;42.678;23.332;2023-02-02T23:33:31;94947.44;;;1.88;100.00
76834;BME280;65793;42.678;23.332;2023-02-02T23:36:32;94957.38;;;1.93;100.00
76834;BME280;65793;42.678;23.332;2023-02-02T23:39:32;94958.19;;;1.93;100.00
76834;BME280;65793;42.678;23.332;2023-02-02T23:42:34;94954.56;;;1.94;100.00
76834;BME280;65793;42.678;23.332;2023-02-02T23:45:35;94959.63;;;1.87;100.00
76834;BME280;65793;42.678;23.332;2023-02-02T23:48:36;94966.28;;;1.82;100.00
76834;BME280;65793;42.678;23.332;2023-02-02T23:51:37;94963.34;;;1.77;100.00
76834;BME280;65793;42.678;23.332;2023-02-02T23:54:37;94954.75;;;1.76;100.00
76834;BME280;65793;42.678;23.332;2023-02-02T23:57:39;94962.38;;;1.70;100.00
